Delta Junction, AK (99737)

6:26 PM AKST on February 10, 2016 (GMT -0900)
Allen Army Air Field | | Change Station
CLOSE
Current Station
Airport
Location: Big Delta,
Elevation: 1306 ft
Nearby Weather Stations

Elev 1306 ft 63.99 °N, 145.72 °W | Updated 33 minutes ago

Overcast
Overcast
20 °F
Feels Like 5 °F
N
18
Wind Variable Wind from ESE

Today
High -- | Low -- °F
--% Chance of Precip.
Yesterday
High -- | Low -- °F
Precip. -- in
Pressure 29.78 in
Visibility 10.0 miles
Clouds Few 8000 ft
Mostly Cloudy 10000 ft
Overcast 12000 ft
Windchill 5 °F
Dew Point 12 °F
Humidity 71%
Rainfall 0.00 in
Snow Depth Not available.
8:53 AM 4:59 PM
Waxing Crescent, 9% visible
METAR PABI 110253Z 11016KT 10SM FEW080 BKN100 OVC120 M07/M11 A2964 RMK AO2 PK WND 12027/0235 SLP082 BINOVC DSNT NW P0000 60000 T10671111 56022
Pressure 29.78 in
Visibility 10.0 miles
Clouds Few 8000 ft
Mostly Cloudy 10000 ft
Overcast 12000 ft
Windchill 5 °F
Dew Point 12 °F
Humidity 71%
Rainfall 0.00 in
Snow Depth Not available.
8:53 AM 4:59 PM
Waxing Crescent, 9% visible
METAR PABI 110253Z 11016KT 10SM FEW080 BKN100 OVC120 M07/M11 A2964 RMK AO2 PK WND 12027/0235 SLP082 BINOVC DSNT NW P0000 60000 T10671111 56022

10-Day Weather Forecast

Almanac

Astronomy

Feb. 10, 2016 Rise Set
Actual Time
Civil Twilight
Nautical Twilight
Astronomical Twilight
Moon
Length of Visible Light
Length of Day
Tomorrow will be .
, % of the Moon is Illuminated

Today's Extremes

State Highs State Lows

Community

WunderPhotos

Upload Photos

1,891,993 photos uploaded!

WunderBlog® & News

Nearby

Air Quality

  Air Quality AQ Index Pollutant
Not available.

Snow Depth

Station Depth Elevation

Earthquake Activity

City Distance Mag. Time & Date
Minimum magnitude displayed is 2.5.

Coastal Water Temperatures

Place Temperature

Stations

Nearby Weather Stations

Station Location Temp. Windchill Dew Point Humidity Wind Precip. Elev Updated Type
                   

Watches & Warnings

There are currently no watches in effect.